Time;durP1;ratioP1;P1;durP2;ratioP2;P2;SDS_P1;SDS_P2;PMS_P1;PMS_P2;Temp;Humidity;BMP_temperature;BMP_pressure;BME280_temperature;BME280_humidity;BME280_pressure;Samples;Min_cycle;Max_cycle;Signal;HPM_P1;HPM_P2
2021/11/09 00:01:02;;;;;;;13.43;4.67;;;8.60;99.90;;;;;;5050308;28;20214;-62
2021/11/09 00:03:30;;;;;;;9.77;4.90;;;8.60;99.90;;;;;;5057732;28;20336;-61
2021/11/09 00:06:01;;;;;;;9.80;4.53;;;8.70;99.90;;;;;;5064466;28;20641;-61
2021/11/09 00:08:34;;;;;;;9.50;4.43;;;8.70;99.90;;;;;;5060413;28;20221;-62
2021/11/09 00:11:01;;;;;;;15.33;4.43;;;8.60;99.90;;;;;;5064520;28;20314;-61
2021/11/09 00:13:28;;;;;;;13.03;4.30;;;8.60;99.90;;;;;;5053367;28;20199;-61
2021/11/09 00:15:54;;;;;;;11.97;4.80;;;8.60;99.90;;;;;;5063611;28;20227;-61
2021/11/09 00:18:21;;;;;;;14.07;5.77;;;8.60;99.90;;;;;;5045374;28;20906;-61
2021/11/09 00:20:48;;;;;;;9.17;5.43;;;8.60;99.90;;;;;;5063888;28;20659;-61
2021/11/09 00:23:15;;;;;;;13.43;5.00;;;8.60;99.90;;;;;;5061475;28;20198;-61
2021/11/09 00:25:43;;;;;;;11.70;5.70;;;8.60;99.90;;;;;;5061426;28;20214;-61
2021/11/09 00:28:11;;;;;;;16.03;5.53;;;8.60;99.90;;;;;;5062998;28;20285;-61
2021/11/09 00:30:40;;;;;;;11.67;5.23;;;8.60;99.90;;;;;;5060326;28;20198;-61
2021/11/09 00:33:07;;;;;;;16.03;5.40;;;8.50;99.90;;;;;;5049106;28;20222;-61
2021/11/09 00:35:35;;;;;;;12.33;5.37;;;8.50;99.90;;;;;;5060500;28;20214;-61
2021/11/09 00:38:05;;;;;;;14.23;5.03;;;8.60;99.90;;;;;;5063494;28;20203;-61
2021/11/09 00:40:34;;;;;;;13.67;5.40;;;8.60;99.90;;;;;;5060045;28;20392;-61
2021/11/09 00:43:03;;;;;;;12.63;5.17;;;8.50;99.90;;;;;;5063640;28;20277;-61
2021/11/09 00:45:31;;;;;;;12.47;5.33;;;8.50;99.90;;;;;;5059376;28;20447;-61
2021/11/09 00:47:57;;;;;;;11.13;5.10;;;8.50;99.90;;;;;;5049722;28;20213;-61
2021/11/09 00:50:26;;;;;;;9.23;4.43;;;8.40;99.90;;;;;;5058762;28;20316;-60
2021/11/09 00:52:53;;;;;;;11.70;4.37;;;8.40;99.90;;;;;;5063306;28;20202;-62
2021/11/09 00:55:21;;;;;;;13.87;5.07;;;8.40;99.90;;;;;;5060699;28;20571;-60
2021/11/09 00:57:49;;;;;;;16.63;4.97;;;8.40;99.90;;;;;;5063266;28;20213;-61
2021/11/09 01:00:20;;;;;;;13.77;5.33;;;8.40;99.90;;;;;;5061511;28;20561;-62
2021/11/09 01:02:49;;;;;;;14.43;4.80;;;8.40;99.90;;;;;;5047640;28;20659;-61
2021/11/09 01:05:22;;;;;;;11.43;4.23;;;8.40;99.90;;;;;;5060939;28;20301;-61
2021/11/09 01:07:49;;;;;;;16.10;5.43;;;8.40;99.90;;;;;;5056695;28;20194;-61
2021/11/09 01:10:17;;;;;;;14.43;4.17;;;8.40;99.90;;;;;;5060873;28;20256;-61
2021/11/09 01:12:45;;;;;;;10.73;3.93;;;8.40;99.90;;;;;;5061955;28;20309;-61
2021/11/09 01:15:13;;;;;;;11.57;4.63;;;8.40;99.90;;;;;;5061491;28;20245;-60
2021/11/09 01:17:41;;;;;;;14.37;4.40;;;8.40;99.90;;;;;;5047156;28;20221;-61
2021/11/09 01:20:11;;;;;;;11.53;4.30;;;8.40;99.90;;;;;;5062234;28;20191;-62
2021/11/09 01:22:37;;;;;;;15.73;4.67;;;8.40;99.90;;;;;;5060568;28;20199;-62
2021/11/09 01:25:05;;;;;;;13.30;3.97;;;8.40;99.90;;;;;;5062760;28;20238;-61
2021/11/09 01:27:32;;;;;;;10.40;3.80;;;8.40;99.90;;;;;;5059741;28;20377;-62
2021/11/09 01:29:59;;;;;;;12.90;4.00;;;8.40;99.90;;;;;;5062970;28;20543;-61
2021/11/09 01:32:26;;;;;;;12.10;4.13;;;8.40;99.90;;;;;;5058867;28;20199;-62
2021/11/09 01:34:54;;;;;;;7.43;3.83;;;8.40;99.90;;;;;;5053626;28;20233;-62
2021/11/09 01:37:21;;;;;;;11.73;4.73;;;8.40;99.90;;;;;;5059327;28;20199;-60
2021/11/09 01:39:47;;;;;;;20.50;4.20;;;8.40;99.90;;;;;;5062365;28;20199;-60
2021/11/09 01:42:14;;;;;;;10.47;3.73;;;8.40;99.90;;;;;;5060953;28;20203;-61
2021/11/09 01:44:40;;;;;;;9.87;4.17;;;8.40;99.90;;;;;;5054570;28;20889;-61
2021/11/09 01:47:07;;;;;;;12.50;3.50;;;8.40;99.90;;;;;;5045456;28;20199;-61
2021/11/09 01:49:34;;;;;;;18.93;4.07;;;8.40;99.90;;;;;;5049028;28;20207;-62
2021/11/09 01:52:02;;;;;;;11.60;3.73;;;8.40;99.90;;;;;;5058535;28;20198;-60
2021/11/09 01:54:29;;;;;;;12.63;3.93;;;8.40;99.90;;;;;;5062455;28;20203;-61
2021/11/09 01:56:56;;;;;;;10.50;3.43;;;8.40;99.90;;;;;;5058942;28;20314;-60
2021/11/09 01:59:24;;;;;;;14.33;3.40;;;8.40;99.90;;;;;;5062743;28;20682;-62
2021/11/09 02:01:51;;;;;;;9.90;4.00;;;8.40;99.90;;;;;;5059173;28;20255;-60
2021/11/09 02:04:18;;;;;;;14.97;3.80;;;8.40;99.90;;;;;;5049233;28;20214;-62
2021/11/09 02:06:44;;;;;;;13.87;4.17;;;8.40;99.90;;;;;;5060295;28;20219;-60
2021/11/09 02:09:17;;;;;;;7.97;3.70;;;8.40;99.90;;;;;;5060824;28;20191;-61
2021/11/09 02:11:47;;;;;;;11.77;3.07;;;8.40;99.90;;;;;;5053340;28;20554;-60
2021/11/09 02:14:15;;;;;;;13.57;3.87;;;8.40;99.90;;;;;;5060041;28;20191;-61
2021/11/09 02:16:42;;;;;;;8.47;3.00;;;8.40;99.90;;;;;;5065052;28;20276;-60
2021/11/09 02:19:09;;;;;;;8.33;3.03;;;8.30;99.90;;;;;;5063156;28;20191;-60
2021/11/09 02:21:37;;;;;;;14.50;2.60;;;8.40;99.90;;;;;;5051685;28;20198;-61
2021/11/09 02:24:04;;;;;;;11.23;3.10;;;8.30;99.90;;;;;;5055848;28;20210;-60
2021/11/09 02:26:31;;;;;;;16.27;3.43;;;8.30;99.90;;;;;;5061924;28;20225;-60
2021/11/09 02:28:59;;;;;;;10.87;2.57;;;8.40;99.90;;;;;;5064677;28;20217;-61
2021/11/09 02:31:28;;;;;;;12.23;3.00;;;8.40;99.90;;;;;;5061973;28;20206;-60
2021/11/09 02:33:55;;;;;;;11.83;3.23;;;8.40;99.90;;;;;;5058554;28;20256;-60
2021/11/09 02:36:22;;;;;;;11.43;2.70;;;8.40;99.90;;;;;;5049710;28;20210;-60
2021/11/09 02:38:50;;;;;;;12.23;2.57;;;8.40;99.90;;;;;;5059169;28;20261;-60
2021/11/09 02:41:18;;;;;;;13.53;3.33;;;8.40;99.90;;;;;;5059014;28;20202;-61
2021/11/09 02:43:45;;;;;;;8.97;3.03;;;8.40;99.90;;;;;;5056859;28;20197;-61
2021/11/09 02:46:29;;;;;;;8.20;2.37;;;8.30;99.90;;;;;;5059738;28;20577;-61
2021/11/09 02:49:02;;;;;;;12.03;3.00;;;8.40;99.90;;;;;;5061712;28;20203;-60
2021/11/09 02:51:33;;;;;;;10.80;2.30;;;8.40;99.90;;;;;;5051088;28;20199;-61
2021/11/09 02:54:05;;;;;;;11.27;3.57;;;8.30;99.90;;;;;;5062204;28;20221;-61
2021/11/09 02:56:37;;;;;;;11.30;2.70;;;8.40;99.90;;;;;;5061498;28;20233;-61
2021/11/09 02:59:09;;;;;;;13.77;3.00;;;8.40;99.90;;;;;;5065910;28;20195;-61
2021/11/09 03:01:42;;;;;;;10.27;3.00;;;8.40;99.90;;;;;;5060621;28;20195;-61
2021/11/09 03:04:12;;;;;;;11.37;3.33;;;8.40;99.90;;;;;;5065156;28;20607;-61
2021/11/09 03:06:42;;;;;;;14.23;3.17;;;8.40;99.90;;;;;;5048807;28;20227;-61
2021/11/09 03:09:14;;;;;;;13.27;2.60;;;8.40;99.90;;;;;;5064267;28;20682;-61
2021/11/09 03:11:46;;;;;;;9.07;2.93;;;8.40;99.90;;;;;;5055807;28;20195;-61
2021/11/09 03:14:14;;;;;;;13.00;2.90;;;8.40;99.90;;;;;;5065361;28;20202;-60
2021/11/09 03:16:43;;;;;;;8.73;2.50;;;8.40;99.90;;;;;;5061924;28;20229;-61
2021/11/09 03:19:20;;;;;;;9.10;2.53;;;8.40;99.90;;;;;;5065616;28;20205;-61
2021/11/09 03:44:23;;;;;;;18.73;3.73;;;8.30;99.90;;;;;;5047063;28;20293;-60
2021/11/09 03:46:53;;;;;;;11.63;3.10;;;8.30;99.90;;;;;;5063338;28;20186;-61
2021/11/09 03:49:21;;;;;;;11.47;3.00;;;8.30;99.90;;;;;;5057415;28;20201;-60
2021/11/09 03:51:48;;;;;;;11.40;3.07;;;8.30;99.90;;;;;;5056381;28;20913;-61
2021/11/09 03:54:18;;;;;;;15.27;3.23;;;8.30;99.90;;;;;;5047242;28;20717;-61
2021/11/09 03:56:49;;;;;;;15.87;3.67;;;8.30;99.90;;;;;;5056144;28;20226;-61
2021/11/09 03:59:18;;;;;;;18.10;3.67;;;8.30;99.90;;;;;;5063872;28;20238;-61
2021/11/09 04:02:00;;;;;;;10.97;3.23;;;8.30;99.90;;;;;;5061941;28;20332;-60
2021/11/09 04:04:35;;;;;;;10.17;3.27;;;8.30;99.90;;;;;;5061532;28;20202;-60
2021/11/09 04:07:08;;;;;;;8.23;3.03;;;8.30;99.90;;;;;;5064463;28;20194;-61
2021/11/09 04:09:53;;;;;;;28.43;3.97;;;8.30;99.90;;;;;;5045760;28;21280;-61
2021/11/09 04:15:13;;;;;;;12.53;3.67;;;8.30;99.90;;;;;;5062352;28;20235;-61
2021/11/09 04:17:56;;;;;;;12.93;3.37;;;8.30;99.90;;;;;;5060875;28;20970;-61
2021/11/09 04:20:37;;;;;;;15.27;3.47;;;8.30;99.90;;;;;;5062230;28;20198;-62
2021/11/09 04:23:42;;;;;;;7.13;3.30;;;8.30;99.90;;;;;;5063517;28;20212;-60
2021/11/09 04:29:07;;;;;;;8.43;3.00;;;8.30;99.90;;;;;;5058600;28;20194;-61
2021/11/09 04:40:39;;;;;;;11.20;4.73;;;8.30;99.90;;;;;;5060080;28;20910;-61
2021/11/09 04:51:47;;;;;;;15.93;5.90;;;8.40;99.90;;;;;;5063516;28;20198;-61
2021/11/09 05:10:38;;;;;;;12.60;5.50;;;8.30;99.90;;;;;;5055288;28;20889;-62
2021/11/09 05:13:05;;;;;;;10.83;4.73;;;8.30;99.90;;;;;;5048500;28;20886;-62
2021/11/09 05:15:32;;;;;;;12.43;5.00;;;8.30;99.90;;;;;;5059056;28;20218;-61
2021/11/09 05:18:00;;;;;;;13.90;5.40;;;8.30;99.90;;;;;;5063399;28;20226;-61
2021/11/09 05:20:29;;;;;;;15.60;7.03;;;8.30;99.90;;;;;;5059127;28;20195;-62
2021/11/09 05:22:57;;;;;;;19.67;7.27;;;8.30;99.90;;;;;;5057848;28;20202;-61
2021/11/09 05:25:23;;;;;;;40.13;10.97;;;8.20;99.90;;;;;;5059552;28;20230;-61
2021/11/09 05:27:51;;;;;;;30.83;9.83;;;8.20;99.90;;;;;;5048802;28;20206;-61
2021/11/09 05:30:18;;;;;;;26.37;9.30;;;8.20;99.90;;;;;;5060798;28;20206;-60
2021/11/09 05:32:46;;;;;;;19.63;7.00;;;8.20;99.90;;;;;;5061562;28;20269;-61
2021/11/09 05:35:14;;;;;;;23.63;7.73;;;8.20;99.90;;;;;;5061711;28;20283;-60
2021/11/09 05:37:43;;;;;;;23.13;8.97;;;8.20;99.90;;;;;;5055816;28;20222;-61
2021/11/09 05:40:12;;;;;;;20.57;7.27;;;8.20;99.90;;;;;;5062070;28;20668;-61
2021/11/09 05:42:39;;;;;;;19.00;6.70;;;8.20;99.90;;;;;;5045647;28;21229;-62
2021/11/09 05:45:08;;;;;;;15.80;6.10;;;8.20;99.90;;;;;;5062722;28;20225;-61
2021/11/09 05:47:35;;;;;;;36.00;10.40;;;8.20;99.90;;;;;;5059462;28;20293;-61
2021/11/09 05:50:02;;;;;;;12.30;5.37;;;8.20;99.90;;;;;;5066810;28;20205;-60
2021/11/09 05:52:30;;;;;;;24.93;7.47;;;8.10;99.90;;;;;;5057411;28;20194;-62
2021/11/09 05:54:57;;;;;;;15.80;6.57;;;8.10;99.90;;;;;;5066820;28;20218;-61
2021/11/09 05:57:23;;;;;;;17.00;7.33;;;8.10;99.90;;;;;;5050257;28;20225;-61
2021/11/09 05:59:50;;;;;;;24.13;7.57;;;8.20;99.90;;;;;;5050608;28;20198;-61
2021/11/09 06:02:17;;;;;;;42.67;11.03;;;8.20;99.90;;;;;;5066375;28;20203;-60
2021/11/09 06:04:43;;;;;;;21.37;7.17;;;8.20;99.90;;;;;;5051640;28;20221;-61
2021/11/09 06:07:10;;;;;;;21.10;6.80;;;8.20;99.90;;;;;;5065259;28;20195;-61
2021/11/09 06:09:38;;;;;;;16.33;7.17;;;8.20;99.90;;;;;;5051348;28;20213;-60
2021/11/09 06:12:05;;;;;;;22.23;7.53;;;8.20;99.90;;;;;;5059759;28;20191;-61
2021/11/09 06:14:32;;;;;;;9.67;5.30;;;8.20;99.90;;;;;;5048655;28;20286;-60
2021/11/09 06:16:59;;;;;;;14.57;6.47;;;8.20;99.90;;;;;;5063761;28;20282;-61
2021/11/09 06:19:25;;;;;;;16.00;7.70;;;8.10;99.90;;;;;;5054610;28;20217;-60
2021/11/09 06:21:52;;;;;;;12.80;5.73;;;8.20;99.90;;;;;;5063172;28;20186;-62
2021/11/09 06:24:19;;;;;;;5.70;4.73;;;8.10;99.90;;;;;;5063840;28;20210;-61
2021/11/09 06:26:48;;;;;;;10.67;5.37;;;8.10;99.90;;;;;;5066263;28;20214;-61
2021/11/09 06:29:15;;;;;;;11.53;5.77;;;8.20;99.90;;;;;;5060062;28;20206;-60
2021/11/09 06:31:42;;;;;;;8.97;4.97;;;8.20;99.90;;;;;;5048871;28;20191;-61
2021/11/09 06:34:09;;;;;;;14.00;5.30;;;8.20;99.90;;;;;;5055950;28;20206;-61
2021/11/09 06:36:36;;;;;;;8.77;5.27;;;8.20;99.90;;;;;;5062043;28;20298;-60
2021/11/09 06:39:03;;;;;;;9.57;5.60;;;8.20;99.90;;;;;;5055834;28;20228;-61
2021/11/09 06:41:30;;;;;;;12.60;6.37;;;8.20;99.90;;;;;;5058685;28;20309;-61
2021/11/09 06:43:58;;;;;;;13.47;6.40;;;8.20;99.90;;;;;;5062913;28;20197;-61
2021/11/09 06:46:25;;;;;;;16.07;6.97;;;8.20;99.90;;;;;;5048326;28;20633;-60
2021/11/09 06:48:52;;;;;;;12.03;6.80;;;8.30;99.90;;;;;;5058894;28;20443;-61
2021/11/09 06:51:19;;;;;;;30.00;15.47;;;8.20;99.90;;;;;;5060537;28;20203;-61
2021/11/09 06:53:46;;;;;;;12.77;7.33;;;8.30;99.90;;;;;;5062642;28;20912;-61
2021/11/09 06:56:13;;;;;;;14.37;7.63;;;8.30;99.90;;;;;;5060966;28;20234;-61
2021/11/09 06:58:39;;;;;;;14.33;7.27;;;8.30;99.90;;;;;;5057448;28;20881;-61
2021/11/09 07:01:07;;;;;;;12.03;6.90;;;8.40;99.90;;;;;;5048081;28;20211;-60
2021/11/09 07:03:34;;;;;;;16.70;7.73;;;8.40;99.90;;;;;;5058147;28;20210;-60
2021/11/09 07:06:03;;;;;;;11.77;7.30;;;8.40;99.90;;;;;;5046851;28;20227;-60
2021/11/09 07:08:30;;;;;;;14.10;7.73;;;8.40;99.90;;;;;;5051674;28;20282;-60
2021/11/09 07:10:56;;;;;;;14.10;7.40;;;8.40;99.90;;;;;;5050407;28;20195;-60
2021/11/09 07:13:23;;;;;;;13.30;6.73;;;8.40;99.90;;;;;;5050698;28;20222;-59
2021/11/09 07:15:50;;;;;;;7.87;5.97;;;8.40;99.90;;;;;;5058521;28;20210;-59
2021/11/09 07:18:18;;;;;;;12.93;6.87;;;8.40;99.90;;;;;;5049778;28;20305;-59
2021/11/09 07:20:44;;;;;;;9.73;7.30;;;8.40;99.90;;;;;;5047541;28;20206;-59
2021/11/09 07:23:11;;;;;;;15.23;7.17;;;8.30;99.90;;;;;;5051282;28;20206;-59
2021/11/09 07:25:39;;;;;;;12.27;7.07;;;8.40;99.90;;;;;;5055729;28;20593;-59
2021/11/09 07:28:06;;;;;;;12.73;7.07;;;8.40;99.90;;;;;;5051965;28;20209;-59
2021/11/09 07:30:41;;;;;;;14.17;7.00;;;8.40;99.90;;;;;;5058445;28;20252;-59
2021/11/09 07:33:08;;;;;;;9.73;7.13;;;8.40;99.90;;;;;;5044673;28;20689;-59
2021/11/09 07:35:37;;;;;;;10.70;7.53;;;8.40;99.90;;;;;;5052695;28;20229;-60
2021/11/09 07:38:04;;;;;;;14.23;7.37;;;8.50;99.90;;;;;;5051950;28;20215;-59
2021/11/09 07:40:31;;;;;;;13.23;8.20;;;8.50;99.90;;;;;;5054025;28;20179;-59
2021/11/09 07:42:58;;;;;;;13.03;7.07;;;8.50;99.90;;;;;;5055597;28;20224;-59
2021/11/09 07:45:25;;;;;;;18.23;8.60;;;8.50;99.90;;;;;;5053676;28;20218;-59
2021/11/09 07:47:55;;;;;;;11.83;7.90;;;8.60;99.90;;;;;;5058648;28;20221;-59
2021/11/09 07:50:23;;;;;;;13.97;8.27;;;8.60;99.90;;;;;;5046609;28;20195;-59
2021/11/09 07:52:53;;;;;;;12.57;8.20;;;8.70;99.90;;;;;;5057813;28;20206;-59
2021/11/09 07:55:21;;;;;;;12.17;7.93;;;8.70;99.90;;;;;;5058460;28;20214;-59
2021/11/09 07:57:51;;;;;;;12.00;7.93;;;8.80;99.90;;;;;;5059433;28;20223;-59
2021/11/09 08:00:24;;;;;;;12.20;8.00;;;8.80;99.90;;;;;;5047761;28;20855;-59
2021/11/09 08:03:06;;;;;;;10.20;8.03;;;8.90;99.90;;;;;;5059074;28;20211;-59
2021/11/09 08:05:37;;;;;;;16.33;8.53;;;8.90;99.90;;;;;;5057707;28;20229;-59
2021/11/09 08:08:09;;;;;;;11.43;7.53;;;9.00;99.90;;;;;;5057437;28;20205;-59
2021/11/09 08:10:36;;;;;;;12.63;8.07;;;9.00;99.90;;;;;;5062981;28;20206;-59
2021/11/09 08:13:03;;;;;;;13.30;8.80;;;9.10;99.90;;;;;;5055472;28;20678;-59
2021/11/09 08:15:29;;;;;;;12.10;8.40;;;9.10;99.90;;;;;;5054030;28;20234;-59
2021/11/09 08:17:56;;;;;;;18.90;9.47;;;9.20;99.90;;;;;;5063727;28;20229;-59
2021/11/09 08:20:23;;;;;;;13.97;8.17;;;9.20;99.90;;;;;;5047410;28;20430;-59
2021/11/09 08:22:50;;;;;;;12.63;8.13;;;9.30;99.90;;;;;;5060748;28;20199;-59
2021/11/09 08:25:19;;;;;;;13.80;7.63;;;9.30;99.90;;;;;;5062428;28;20233;-59
2021/11/09 08:27:45;;;;;;;10.27;7.40;;;9.40;99.90;;;;;;5058220;28;20225;-59
2021/11/09 08:30:13;;;;;;;11.03;6.60;;;9.50;99.90;;;;;;5052420;28;20210;-59
2021/11/09 08:32:42;;;;;;;14.97;6.80;;;9.50;99.90;;;;;;5063279;28;20667;-59
2021/11/09 08:35:11;;;;;;;12.10;6.40;;;9.50;99.90;;;;;;5045944;28;20214;-59
2021/11/09 08:37:37;;;;;;;13.00;6.77;;;9.50;99.90;;;;;;5056910;28;20219;-59
2021/11/09 08:40:10;;;;;;;10.10;5.27;;;9.60;99.90;;;;;;5063423;28;20202;-59
2021/11/09 08:42:43;;;;;;;11.50;5.90;;;9.60;99.90;;;;;;5062994;28;20681;-59
2021/11/09 08:45:16;;;;;;;17.77;7.37;;;9.60;99.90;;;;;;5056938;28;20718;-59
2021/11/09 08:47:47;;;;;;;9.90;5.30;;;9.80;99.90;;;;;;5057266;28;20248;-59
2021/11/09 08:50:14;;;;;;;12.47;6.33;;;9.90;99.90;;;;;;5046134;28;20211;-59
2021/11/09 08:52:41;;;;;;;14.50;6.50;;;10.00;99.90;;;;;;5061641;28;20595;-59
2021/11/09 08:55:22;;;;;;;16.07;8.30;;;10.00;99.90;;;;;;5055544;28;20288;-59
2021/11/09 09:06:27;;;;;;;20.43;9.67;;;10.00;99.90;;;;;;5001524;28;20247;-59
2021/11/09 09:08:54;;;;;;;22.90;10.50;;;10.10;99.90;;;;;;5029486;28;20241;-59
2021/11/09 09:11:22;;;;;;;22.17;8.73;;;10.30;99.90;;;;;;5044991;28;20209;-59
2021/11/09 09:13:50;;;;;;;18.23;9.87;;;10.40;99.90;;;;;;5058941;28;20191;-59
2021/11/09 09:16:18;;;;;;;20.30;8.77;;;10.40;99.90;;;;;;5052094;28;20730;-59
2021/11/09 09:18:45;;;;;;;15.20;7.70;;;10.40;99.90;;;;;;5055709;28;20229;-59
2021/11/09 09:21:14;;;;;;;15.23;7.93;;;10.40;99.90;;;;;;5047027;28;20195;-59
2021/11/09 09:23:45;;;;;;;18.57;8.70;;;10.40;99.90;;;;;;5054442;28;20202;-60
2021/11/09 09:26:23;;;;;;;17.50;8.03;;;10.40;99.90;;;;;;5059045;28;20214;-59
2021/11/09 09:31:56;;;;;;;16.63;7.83;;;10.40;99.90;;;;;;5053190;28;20206;-59
2021/11/09 09:56:29;;;;;;;21.50;10.03;;;10.60;99.90;;;;;;5048388;28;20226;-59
2021/11/09 09:58:56;;;;;;;16.00;9.40;;;10.70;99.90;;;;;;5062434;28;20199;-59
2021/11/09 10:01:25;;;;;;;27.93;11.80;;;10.60;99.90;;;;;;5058035;28;20190;-59
2021/11/09 10:03:51;;;;;;;21.17;9.77;;;10.60;99.90;;;;;;5057602;28;20291;-59
2021/11/09 10:06:18;;;;;;;20.93;10.03;;;10.60;99.90;;;;;;5051480;28;20237;-59
2021/11/09 10:08:48;;;;;;;19.47;10.17;;;10.60;99.90;;;;;;5040805;28;20205;-59
2021/11/09 10:11:32;;;;;;;21.00;9.63;;;10.70;99.90;;;;;;5050901;28;20199;-59
2021/11/09 10:13:59;;;;;;;17.67;9.27;;;10.70;99.90;;;;;;5042003;28;20206;-60
2021/11/09 10:16:28;;;;;;;20.57;10.33;;;10.80;99.90;;;;;;5055227;28;20225;-61
2021/11/09 10:18:54;;;;;;;22.07;11.03;;;10.80;99.90;;;;;;5054618;28;20218;-59
2021/11/09 10:21:32;;;;;;;25.50;10.77;;;10.80;99.90;;;;;;5048977;28;20199;-62
2021/11/09 10:23:59;;;;;;;22.00;10.80;;;10.90;99.90;;;;;;5045090;28;20222;-60
2021/11/09 10:26:27;;;;;;;20.63;10.70;;;10.80;99.90;;;;;;5056094;28;21026;-61
2021/11/09 10:28:54;;;;;;;27.70;11.67;;;10.80;99.90;;;;;;5055126;28;20587;-61
2021/11/09 10:31:21;;;;;;;20.20;10.57;;;10.90;99.90;;;;;;5059576;28;20195;-61
2021/11/09 10:33:51;;;;;;;21.40;10.93;;;10.90;99.90;;;;;;5057624;28;20434;-60
2021/11/09 10:36:19;;;;;;;21.50;9.67;;;10.90;99.90;;;;;;5055248;28;20243;-60
2021/11/09 10:38:47;;;;;;;17.77;9.20;;;11.00;99.90;;;;;;5065903;28;20223;-61
2021/11/09 10:41:14;;;;;;;18.03;8.43;;;11.00;99.90;;;;;;5048334;28;20237;-61
2021/11/09 10:43:41;;;;;;;15.93;8.73;;;11.00;99.90;;;;;;5058880;28;20671;-61
2021/11/09 10:46:22;;;;;;;18.30;9.80;;;11.00;99.90;;;;;;5056934;28;20227;-61
2021/11/09 10:48:50;;;;;;;17.63;9.47;;;11.00;99.90;;;;;;5065699;28;20201;-61
2021/11/09 10:51:16;;;;;;;24.07;8.40;;;11.10;99.90;;;;;;5052294;28;20264;-61
2021/11/09 10:53:46;;;;;;;17.97;8.63;;;11.10;99.90;;;;;;5065336;28;20667;-61
2021/11/09 10:56:29;;;;;;;18.27;7.87;;;11.10;99.90;;;;;;5044664;28;20211;-61
2021/11/09 11:04:16;;;;;;;21.97;8.57;;;11.20;99.90;;;;;;5060951;28;20277;-61
2021/11/09 11:06:45;;;;;;;21.40;8.27;;;11.20;99.90;;;;;;5060285;28;20327;-61
2021/11/09 11:09:21;;;;;;;15.57;8.17;;;11.20;99.90;;;;;;5048099;28;20199;-60
2021/11/09 11:11:50;;;;;;;28.87;8.60;;;11.30;99.90;;;;;;5046926;28;20336;-61
2021/11/09 11:14:20;;;;;;;22.30;8.03;;;11.30;99.90;;;;;;5052172;28;20203;-61
2021/11/09 11:16:51;;;;;;;19.53;8.07;;;11.40;99.90;;;;;;5059864;28;20218;-61
2021/11/09 11:19:20;;;;;;;22.80;9.10;;;11.40;99.90;;;;;;5062069;28;20290;-60
2021/11/09 11:21:48;;;;;;;19.07;7.43;;;11.40;99.90;;;;;;5060045;28;20209;-60
2021/11/09 11:24:16;;;;;;;20.27;7.90;;;11.50;99.90;;;;;;5055363;28;20950;-62
2021/11/09 11:26:44;;;;;;;14.57;7.17;;;11.50;99.90;;;;;;5051153;28;20594;-60
2021/11/09 11:29:15;;;;;;;21.27;7.90;;;11.50;99.90;;;;;;5055934;28;20932;-61
2021/11/09 11:31:42;;;;;;;17.60;7.77;;;11.60;99.90;;;;;;5059523;28;20212;-61
2021/11/09 11:34:09;;;;;;;14.47;7.10;;;11.60;99.90;;;;;;5058246;28;20199;-60
2021/11/09 11:36:37;;;;;;;15.63;6.43;;;11.70;99.90;;;;;;5058786;28;20248;-60
2021/11/09 11:39:07;;;;;;;15.93;7.80;;;11.80;99.90;;;;;;5053571;28;20610;-61
2021/11/09 11:41:36;;;;;;;15.73;6.50;;;11.80;99.90;;;;;;5063559;28;20199;-60
2021/11/09 11:44:06;;;;;;;16.70;6.60;;;11.90;99.90;;;;;;5048702;28;20202;-61
2021/11/09 11:46:53;;;;;;;20.30;6.63;;;12.00;99.90;;;;;;5038837;28;20286;-61
2021/11/09 11:49:27;;;;;;;16.40;6.87;;;12.10;99.90;;;;;;5053723;28;20213;-60
2021/11/09 11:52:14;;;;;;;16.97;6.90;;;12.10;99.90;;;;;;5057405;28;20267;-60
2021/11/09 11:54:50;;;;;;;14.77;6.23;;;12.10;99.90;;;;;;5054542;28;20197;-60
2021/11/09 11:57:38;;;;;;;14.27;6.07;;;12.10;99.90;;;;;;5026796;28;20226;-61
2021/11/09 12:00:39;;;;;;;16.63;5.80;;;12.10;99.90;;;;;;5042762;28;20199;-61
2021/11/09 12:03:35;;;;;;;18.67;6.83;;;12.00;99.90;;;;;;5053368;28;20202;-60
2021/11/09 12:06:15;;;;;;;20.17;6.93;;;12.10;99.90;;;;;;5060572;28;20222;-60
2021/11/09 12:08:47;;;;;;;16.90;6.93;;;12.10;99.90;;;;;;5060535;28;20241;-61
2021/11/09 12:11:38;;;;;;;21.47;6.37;;;12.10;99.90;;;;;;5053539;28;20274;-60
2021/11/09 12:14:08;;;;;;;14.77;6.30;;;12.10;99.90;;;;;;5040983;28;20203;-60
2021/11/09 12:16:48;;;;;;;11.07;6.53;;;12.00;99.90;;;;;;5053658;28;20305;-60
2021/11/09 12:19:57;;;;;;;14.00;5.93;;;12.00;99.90;;;;;;5050785;28;20210;-60
2021/11/09 12:22:37;;;;;;;21.27;6.63;;;12.00;99.90;;;;;;5054698;28;20217;-60
2021/11/09 12:25:06;;;;;;;16.40;5.53;;;12.00;99.90;;;;;;5053780;28;20228;-60
2021/11/09 12:28:01;;;;;;;13.60;6.00;;;12.00;99.90;;;;;;5065507;28;20194;-61
2021/11/09 12:30:45;;;;;;;14.70;5.00;;;12.00;99.90;;;;;;5058410;28;20217;-60
2021/11/09 12:33:15;;;;;;;17.80;7.37;;;12.10;99.90;;;;;;5048830;28;20732;-60
2021/11/09 12:35:44;;;;;;;10.37;5.23;;;12.10;99.90;;;;;;5067565;28;20283;-61
2021/11/09 12:38:15;;;;;;;14.67;5.50;;;12.20;99.90;;;;;;5057233;28;20310;-60
2021/11/09 12:40:56;;;;;;;10.00;4.80;;;12.20;99.90;;;;;;5057303;28;20199;-60
2021/11/09 12:43:40;;;;;;;11.47;5.10;;;12.20;99.90;;;;;;5058890;28;20198;-60
2021/11/09 12:46:10;;;;;;;12.20;4.90;;;12.20;99.90;;;;;;5045219;28;20310;-61
2021/11/09 12:48:39;;;;;;;14.57;5.33;;;12.20;99.90;;;;;;5055232;28;20248;-61
2021/11/09 12:51:08;;;;;;;15.83;5.23;;;12.10;99.90;;;;;;5054974;28;20203;-61
2021/11/09 12:53:38;;;;;;;15.83;5.60;;;12.10;99.90;;;;;;5059834;28;20286;-61
2021/11/09 12:56:08;;;;;;;15.07;5.33;;;12.10;99.90;;;;;;5067663;28;20225;-61
2021/11/09 12:58:38;;;;;;;15.90;6.43;;;12.20;99.90;;;;;;5069844;28;20215;-60
2021/11/09 13:01:27;;;;;;;12.87;6.30;;;12.20;99.90;;;;;;5045818;28;20567;-60
2021/11/09 13:04:06;;;;;;;11.60;5.13;;;12.20;99.90;;;;;;5058557;28;20202;-59
2021/11/09 13:06:43;;;;;;;14.87;5.67;;;12.20;99.90;;;;;;5058116;28;20601;-59
2021/11/09 13:09:20;;;;;;;14.47;6.10;;;12.20;99.90;;;;;;5055872;28;20889;-59
2021/11/09 13:11:50;;;;;;;15.90;5.87;;;12.20;99.90;;;;;;5066515;28;20198;-59
2021/11/09 13:14:18;;;;;;;11.90;5.20;;;12.20;99.90;;;;;;5057578;28;20194;-59
2021/11/09 13:16:47;;;;;;;13.00;6.07;;;12.30;99.90;;;;;;5049758;28;20574;-59
2021/11/09 13:19:16;;;;;;;11.17;6.57;;;12.30;99.90;;;;;;5051524;28;20207;-59
2021/11/09 13:21:42;;;;;;;18.77;7.00;;;12.20;99.90;;;;;;5057380;28;20856;-59
2021/11/09 13:24:17;;;;;;;12.63;6.20;;;12.20;99.90;;;;;;5054806;28;20200;-60
2021/11/09 13:26:51;;;;;;;15.57;6.73;;;12.30;99.90;;;;;;5059878;28;20216;-59
2021/11/09 13:29:18;;;;;;;19.13;7.47;;;12.30;99.90;;;;;;5065388;28;20190;-59
2021/11/09 13:31:45;;;;;;;11.43;7.17;;;12.30;99.90;;;;;;5054174;28;20198;-59
2021/11/09 13:34:13;;;;;;;13.23;7.43;;;12.40;99.90;;;;;;5058890;28;21283;-59
2021/11/09 13:36:40;;;;;;;14.23;6.97;;;12.40;99.90;;;;;;5058172;28;20218;-60
2021/11/09 13:39:07;;;;;;;12.47;5.90;;;13.10;99.90;;;;;;5060344;28;20202;-60
2021/11/09 13:41:35;;;;;;;11.27;6.27;;;13.70;99.90;;;;;;5055085;28;20195;-60
2021/11/09 13:44:06;;;;;;;17.20;7.80;;;13.80;99.90;;;;;;5053666;28;20520;-61
2021/11/09 13:46:37;;;;;;;14.00;5.60;;;13.70;99.90;;;;;;5052243;28;20264;-60
2021/11/09 13:49:06;;;;;;;13.60;6.10;;;13.50;99.90;;;;;;5043683;28;20205;-61
2021/11/09 13:51:38;;;;;;;11.40;5.20;;;13.50;99.90;;;;;;5053361;28;20210;-60
2021/11/09 13:54:14;;;;;;;17.07;6.67;;;13.40;99.90;;;;;;5052379;28;20853;-60
2021/11/09 13:56:46;;;;;;;14.13;5.87;;;13.50;99.90;;;;;;5057008;28;20291;-60
2021/11/09 13:59:14;;;;;;;15.07;5.77;;;13.50;99.90;;;;;;5049820;28;20214;-59
2021/11/09 14:01:49;;;;;;;10.70;5.07;;;13.60;99.90;;;;;;5056049;28;20209;-59
2021/11/09 14:04:53;;;;;;;13.73;5.80;;;13.60;99.90;;;;;;5038344;28;20207;-60
2021/11/09 14:16:04;;;;;;;6.73;4.20;;;13.70;99.90;;;;;;5059636;28;20297;-59
2021/11/09 14:18:31;;;;;;;9.40;5.00;;;13.70;99.90;;;;;;5064604;28;20305;-60
2021/11/09 14:21:00;;;;;;;10.47;4.40;;;13.70;99.90;;;;;;5047115;28;20209;-59
2021/11/09 14:23:32;;;;;;;9.90;5.47;;;13.60;99.90;;;;;;5063546;28;20215;-59
2021/11/09 14:26:00;;;;;;;8.67;4.30;;;13.40;99.90;;;;;;5063431;28;20218;-59
2021/11/09 14:28:36;;;;;;;12.20;4.13;;;13.20;99.90;;;;;;5063548;28;20217;-59
2021/11/09 14:31:18;;;;;;;12.27;4.50;;;13.00;99.90;;;;;;5062331;28;20216;-59
2021/11/09 14:33:48;;;;;;;10.23;4.30;;;12.80;99.90;;;;;;5074581;28;20558;-60
2021/11/09 14:36:29;;;;;;;12.63;4.33;;;12.60;99.90;;;;;;5035209;28;20901;-60
2021/11/09 14:39:11;;;;;;;9.63;4.30;;;12.50;99.90;;;;;;5068688;28;20283;-59
2021/11/09 14:41:58;;;;;;;6.13;3.30;;;12.40;99.90;;;;;;5071153;28;20206;-59
2021/11/09 14:44:27;;;;;;;6.43;3.53;;;12.20;99.90;;;;;;5058869;28;20346;-60
2021/11/09 14:46:57;;;;;;;7.33;3.60;;;12.10;99.90;;;;;;5064360;28;20201;-59
2021/11/09 14:49:37;;;;;;;13.00;5.53;;;12.10;99.90;;;;;;5063678;28;20983;-59